sensor_id;sensor_type;location;lat;lon;timestamp;temperature;humidity
18085;DHT22;9169;44.492;11.372;2022-07-17T00:02:23;31.90;35.30
18085;DHT22;9169;44.492;11.372;2022-07-17T00:04:51;31.90;34.50
18085;DHT22;9169;44.492;11.372;2022-07-17T00:07:18;31.80;34.30
18085;DHT22;9169;44.492;11.372;2022-07-17T00:09:45;31.80;34.30
18085;DHT22;9169;44.492;11.372;2022-07-17T00:12:12;31.80;34.70
18085;DHT22;9169;44.492;11.372;2022-07-17T00:14:39;31.80;34.50
18085;DHT22;9169;44.492;11.372;2022-07-17T00:17:05;31.70;34.90
18085;DHT22;9169;44.492;11.372;2022-07-17T00:19:32;31.70;35.80
18085;DHT22;9169;44.492;11.372;2022-07-17T00:22:00;31.60;34.90
18085;DHT22;9169;44.492;11.372;2022-07-17T00:24:27;31.60;34.90
18085;DHT22;9169;44.492;11.372;2022-07-17T00:26:54;31.60;36.70
18085;DHT22;9169;44.492;11.372;2022-07-17T00:29:21;31.60;36.30
18085;DHT22;9169;44.492;11.372;2022-07-17T00:31:48;31.50;36.60
18085;DHT22;9169;44.492;11.372;2022-07-17T00:34:14;31.40;37.40
18085;DHT22;9169;44.492;11.372;2022-07-17T00:36:41;31.30;37.20
18085;DHT22;9169;44.492;11.372;2022-07-17T00:39:09;31.30;37.60
18085;DHT22;9169;44.492;11.372;2022-07-17T00:41:36;31.20;38.00
18085;DHT22;9169;44.492;11.372;2022-07-17T00:44:04;31.10;38.20
18085;DHT22;9169;44.492;11.372;2022-07-17T00:46:31;31.20;37.40
18085;DHT22;9169;44.492;11.372;2022-07-17T00:48:58;31.20;37.00
18085;DHT22;9169;44.492;11.372;2022-07-17T00:51:25;31.10;36.30
18085;DHT22;9169;44.492;11.372;2022-07-17T00:53:51;31.20;35.90
18085;DHT22;9169;44.492;11.372;2022-07-17T00:56:19;31.20;37.80
18085;DHT22;9169;44.492;11.372;2022-07-17T00:58:48;31.20;37.80
18085;DHT22;9169;44.492;11.372;2022-07-17T01:01:15;31.10;36.80
18085;DHT22;9169;44.492;11.372;2022-07-17T01:03:42;31.10;36.20
18085;DHT22;9169;44.492;11.372;2022-07-17T01:06:09;31.20;36.00
18085;DHT22;9169;44.492;11.372;2022-07-17T01:08:37;31.20;36.40
18085;DHT22;9169;44.492;11.372;2022-07-17T01:11:04;31.20;37.90
18085;DHT22;9169;44.492;11.372;2022-07-17T01:13:33;31.10;38.60
18085;DHT22;9169;44.492;11.372;2022-07-17T01:16:00;31.10;38.40
18085;DHT22;9169;44.492;11.372;2022-07-17T01:18:27;31.00;39.80
18085;DHT22;9169;44.492;11.372;2022-07-17T01:20:53;30.90;39.10
18085;DHT22;9169;44.492;11.372;2022-07-17T01:23:21;30.90;37.80
18085;DHT22;9169;44.492;11.372;2022-07-17T01:25:48;30.90;37.60
18085;DHT22;9169;44.492;11.372;2022-07-17T01:28:15;30.90;37.40
18085;DHT22;9169;44.492;11.372;2022-07-17T01:30:45;30.90;36.90
18085;DHT22;9169;44.492;11.372;2022-07-17T01:33:12;31.00;36.90
18085;DHT22;9169;44.492;11.372;2022-07-17T01:35:42;31.00;37.30
18085;DHT22;9169;44.492;11.372;2022-07-17T01:38:09;31.00;37.10
18085;DHT22;9169;44.492;11.372;2022-07-17T01:40:37;31.00;38.90
18085;DHT22;9169;44.492;11.372;2022-07-17T01:43:04;30.90;40.20
18085;DHT22;9169;44.492;11.372;2022-07-17T01:45:30;30.80;39.80
18085;DHT22;9169;44.492;11.372;2022-07-17T01:47:57;30.80;39.40
18085;DHT22;9169;44.492;11.372;2022-07-17T01:50:24;30.70;38.80
18085;DHT22;9169;44.492;11.372;2022-07-17T01:52:51;30.70;39.50
18085;DHT22;9169;44.492;11.372;2022-07-17T01:55:18;30.70;39.00
18085;DHT22;9169;44.492;11.372;2022-07-17T01:57:46;30.70;40.10
18085;DHT22;9169;44.492;11.372;2022-07-17T02:00:13;30.70;39.70
18085;DHT22;9169;44.492;11.372;2022-07-17T02:02:41;30.70;40.20
18085;DHT22;9169;44.492;11.372;2022-07-17T02:05:09;30.70;39.80
18085;DHT22;9169;44.492;11.372;2022-07-17T02:07:35;30.70;40.30
18085;DHT22;9169;44.492;11.372;2022-07-17T02:10:06;30.70;39.80
18085;DHT22;9169;44.492;11.372;2022-07-17T02:12:33;30.70;39.50
18085;DHT22;9169;44.492;11.372;2022-07-17T02:15:01;30.60;39.50
18085;DHT22;9169;44.492;11.372;2022-07-17T02:17:27;30.70;39.40
18085;DHT22;9169;44.492;11.372;2022-07-17T02:19:54;30.70;39.60
18085;DHT22;9169;44.492;11.372;2022-07-17T02:22:21;30.70;39.30
18085;DHT22;9169;44.492;11.372;2022-07-17T02:24:47;30.60;40.60
18085;DHT22;9169;44.492;11.372;2022-07-17T02:27:14;30.60;40.10
18085;DHT22;9169;44.492;11.372;2022-07-17T02:29:41;30.60;39.40
18085;DHT22;9169;44.492;11.372;2022-07-17T02:32:09;30.60;39.20
18085;DHT22;9169;44.492;11.372;2022-07-17T02:34:36;30.60;39.10
18085;DHT22;9169;44.492;11.372;2022-07-17T02:37:03;30.60;39.40
18085;DHT22;9169;44.492;11.372;2022-07-17T02:39:29;30.60;40.70
18085;DHT22;9169;44.492;11.372;2022-07-17T02:41:56;30.60;40.70
18085;DHT22;9169;44.492;11.372;2022-07-17T02:44:23;30.50;39.50
18085;DHT22;9169;44.492;11.372;2022-07-17T02:46:50;30.60;39.10
18085;DHT22;9169;44.492;11.372;2022-07-17T02:49:18;30.60;38.80
18085;DHT22;9169;44.492;11.372;2022-07-17T02:51:44;30.60;39.00
18085;DHT22;9169;44.492;11.372;2022-07-17T02:54:11;30.60;38.80
18085;DHT22;9169;44.492;11.372;2022-07-17T02:56:38;30.60;38.80
18085;DHT22;9169;44.492;11.372;2022-07-17T02:59:05;30.60;38.60
18085;DHT22;9169;44.492;11.372;2022-07-17T03:01:32;30.50;38.70
18085;DHT22;9169;44.492;11.372;2022-07-17T03:03:58;30.50;38.40
18085;DHT22;9169;44.492;11.372;2022-07-17T03:06:27;30.50;38.50
18085;DHT22;9169;44.492;11.372;2022-07-17T03:08:53;30.50;38.30
18085;DHT22;9169;44.492;11.372;2022-07-17T03:11:20;30.50;38.00
18085;DHT22;9169;44.492;11.372;2022-07-17T03:13:47;30.30;37.90
18085;DHT22;9169;44.492;11.372;2022-07-17T03:16:14;30.50;38.00
18085;DHT22;9169;44.492;11.372;2022-07-17T03:18:41;30.50;37.80
18085;DHT22;9169;44.492;11.372;2022-07-17T03:21:07;30.50;37.50
18085;DHT22;9169;44.492;11.372;2022-07-17T03:23:35;30.50;38.10
18085;DHT22;9169;44.492;11.372;2022-07-17T03:26:02;30.50;38.50
18085;DHT22;9169;44.492;11.372;2022-07-17T03:28:29;30.40;38.40
18085;DHT22;9169;44.492;11.372;2022-07-17T03:30:56;30.40;38.30
18085;DHT22;9169;44.492;11.372;2022-07-17T03:33:23;30.40;38.40
18085;DHT22;9169;44.492;11.372;2022-07-17T03:35:49;30.30;38.50
18085;DHT22;9169;44.492;11.372;2022-07-17T03:38:16;30.30;38.40
18085;DHT22;9169;44.492;11.372;2022-07-17T03:40:44;30.30;39.30
18085;DHT22;9169;44.492;11.372;2022-07-17T03:43:11;30.30;38.90
18085;DHT22;9169;44.492;11.372;2022-07-17T03:45:39;30.20;38.50
18085;DHT22;9169;44.492;11.372;2022-07-17T03:48:07;30.20;38.60
18085;DHT22;9169;44.492;11.372;2022-07-17T03:50:36;30.30;38.80
18085;DHT22;9169;44.492;11.372;2022-07-17T03:53:02;30.20;38.40
18085;DHT22;9169;44.492;11.372;2022-07-17T03:55:29;30.40;38.20
18085;DHT22;9169;44.492;11.372;2022-07-17T03:57:57;30.20;38.20
18085;DHT22;9169;44.492;11.372;2022-07-17T04:00:24;30.20;39.20
18085;DHT22;9169;44.492;11.372;2022-07-17T04:02:51;30.20;40.00
18085;DHT22;9169;44.492;11.372;2022-07-17T04:05:17;30.20;40.10
18085;DHT22;9169;44.492;11.372;2022-07-17T04:07:44;30.20;39.40
18085;DHT22;9169;44.492;11.372;2022-07-17T04:10:12;30.20;39.50
18085;DHT22;9169;44.492;11.372;2022-07-17T04:12:39;30.20;39.70
18085;DHT22;9169;44.492;11.372;2022-07-17T04:15:07;30.20;39.30
18085;DHT22;9169;44.492;11.372;2022-07-17T04:17:35;30.20;40.70
18085;DHT22;9169;44.492;11.372;2022-07-17T04:20:02;30.20;40.10
18085;DHT22;9169;44.492;11.372;2022-07-17T04:22:28;30.20;39.90
18085;DHT22;9169;44.492;11.372;2022-07-17T04:24:55;30.20;39.60
18085;DHT22;9169;44.492;11.372;2022-07-17T04:27:22;30.20;39.40
18085;DHT22;9169;44.492;11.372;2022-07-17T04:29:49;30.20;39.30
18085;DHT22;9169;44.492;11.372;2022-07-17T04:32:18;30.30;39.20
18085;DHT22;9169;44.492;11.372;2022-07-17T04:34:45;30.30;38.90
18085;DHT22;9169;44.492;11.372;2022-07-17T04:37:11;30.30;39.00
18085;DHT22;9169;44.492;11.372;2022-07-17T04:39:38;30.40;40.00
18085;DHT22;9169;44.492;11.372;2022-07-17T04:42:05;30.30;40.30
18085;DHT22;9169;44.492;11.372;2022-07-17T04:44:32;30.30;41.00
18085;DHT22;9169;44.492;11.372;2022-07-17T04:46:59;30.30;41.00
18085;DHT22;9169;44.492;11.372;2022-07-17T04:49:27;30.30;41.40
18085;DHT22;9169;44.492;11.372;2022-07-17T04:51:54;30.20;41.60
18085;DHT22;9169;44.492;11.372;2022-07-17T04:54:20;30.20;41.60
18085;DHT22;9169;44.492;11.372;2022-07-17T04:56:47;30.20;41.00
18085;DHT22;9169;44.492;11.372;2022-07-17T04:59:14;30.30;40.90
18085;DHT22;9169;44.492;11.372;2022-07-17T05:01:41;30.30;40.60
18085;DHT22;9169;44.492;11.372;2022-07-17T05:04:07;30.30;41.30
18085;DHT22;9169;44.492;11.372;2022-07-17T05:06:35;30.30;40.60
18085;DHT22;9169;44.492;11.372;2022-07-17T05:09:02;30.40;40.90
18085;DHT22;9169;44.492;11.372;2022-07-17T05:11:29;30.40;40.30
18085;DHT22;9169;44.492;11.372;2022-07-17T05:13:56;30.50;40.10
18085;DHT22;9169;44.492;11.372;2022-07-17T05:16:22;30.50;40.10
18085;DHT22;9169;44.492;11.372;2022-07-17T05:18:49;30.60;39.70
18085;DHT22;9169;44.492;11.372;2022-07-17T05:21:16;30.70;39.90
18085;DHT22;9169;44.492;11.372;2022-07-17T05:23:44;30.70;40.10
18085;DHT22;9169;44.492;11.372;2022-07-17T05:26:11;30.70;40.00
18085;DHT22;9169;44.492;11.372;2022-07-17T05:28:38;30.80;39.90
18085;DHT22;9169;44.492;11.372;2022-07-17T05:31:05;30.90;39.60
18085;DHT22;9169;44.492;11.372;2022-07-17T05:33:31;30.90;39.40
18085;DHT22;9169;44.492;11.372;2022-07-17T05:35:58;31.00;39.40
18085;DHT22;9169;44.492;11.372;2022-07-17T05:38:25;31.00;39.60
18085;DHT22;9169;44.492;11.372;2022-07-17T05:40:53;31.10;39.70
18085;DHT22;9169;44.492;11.372;2022-07-17T05:43:20;31.10;39.50
18085;DHT22;9169;44.492;11.372;2022-07-17T05:45:47;31.10;39.50
18085;DHT22;9169;44.492;11.372;2022-07-17T05:48:13;31.20;39.40
18085;DHT22;9169;44.492;11.372;2022-07-17T05:50:40;31.20;39.20
18085;DHT22;9169;44.492;11.372;2022-07-17T05:53:07;31.30;39.40
18085;DHT22;9169;44.492;11.372;2022-07-17T05:55:33;31.30;39.30
18085;DHT22;9169;44.492;11.372;2022-07-17T05:58:03;31.30;39.60
18085;DHT22;9169;44.492;11.372;2022-07-17T06:00:31;31.40;39.60
18085;DHT22;9169;44.492;11.372;2022-07-17T06:02:58;31.40;39.40
18085;DHT22;9169;44.492;11.372;2022-07-17T06:05:24;31.40;39.30
18085;DHT22;9169;44.492;11.372;2022-07-17T06:07:52;31.40;39.30
18085;DHT22;9169;44.492;11.372;2022-07-17T06:10:19;31.50;39.10
18085;DHT22;9169;44.492;11.372;2022-07-17T06:12:46;31.50;39.00
18085;DHT22;9169;44.492;11.372;2022-07-17T06:15:14;31.50;39.70
18085;DHT22;9169;44.492;11.372;2022-07-17T06:17:41;31.50;41.40
18085;DHT22;9169;44.492;11.372;2022-07-17T06:20:08;31.50;40.50
18085;DHT22;9169;44.492;11.372;2022-07-17T06:22:35;31.50;40.40
18085;DHT22;9169;44.492;11.372;2022-07-17T06:25:02;31.50;39.80
18085;DHT22;9169;44.492;11.372;2022-07-17T06:27:29;31.60;39.70
18085;DHT22;9169;44.492;11.372;2022-07-17T06:29:56;31.50;40.20
18085;DHT22;9169;44.492;11.372;2022-07-17T06:32:24;31.50;39.40
18085;DHT22;9169;44.492;11.372;2022-07-17T06:34:51;31.60;39.20
18085;DHT22;9169;44.492;11.372;2022-07-17T06:37:18;31.60;39.00
18085;DHT22;9169;44.492;11.372;2022-07-17T06:39:45;31.60;38.70
18085;DHT22;9169;44.492;11.372;2022-07-17T06:42:11;31.60;39.40
18085;DHT22;9169;44.492;11.372;2022-07-17T06:44:38;31.70;39.00
18085;DHT22;9169;44.492;11.372;2022-07-17T06:47:05;31.80;39.00
18085;DHT22;9169;44.492;11.372;2022-07-17T06:49:33;31.80;39.20
18085;DHT22;9169;44.492;11.372;2022-07-17T06:52:00;31.80;39.70
18085;DHT22;9169;44.492;11.372;2022-07-17T06:54:27;31.80;39.30
18085;DHT22;9169;44.492;11.372;2022-07-17T06:56:53;31.80;40.20
18085;DHT22;9169;44.492;11.372;2022-07-17T06:59:20;31.80;40.60
18085;DHT22;9169;44.492;11.372;2022-07-17T07:01:47;31.80;40.00
18085;DHT22;9169;44.492;11.372;2022-07-17T07:04:14;31.80;39.90
18085;DHT22;9169;44.492;11.372;2022-07-17T07:06:42;31.90;39.90
18085;DHT22;9169;44.492;11.372;2022-07-17T07:09:09;31.80;40.70
18085;DHT22;9169;44.492;11.372;2022-07-17T07:11:37;31.80;40.20
18085;DHT22;9169;44.492;11.372;2022-07-17T07:14:04;31.90;40.30
18085;DHT22;9169;44.492;11.372;2022-07-17T07:16:31;31.90;39.80
18085;DHT22;9169;44.492;11.372;2022-07-17T07:18:57;32.00;39.60
18085;DHT22;9169;44.492;11.372;2022-07-17T07:21:24;32.10;39.40
18085;DHT22;9169;44.492;11.372;2022-07-17T07:23:52;32.10;39.20
18085;DHT22;9169;44.492;11.372;2022-07-17T07:26:19;32.20;39.50
18085;DHT22;9169;44.492;11.372;2022-07-17T07:28:46;32.20;39.20
18085;DHT22;9169;44.492;11.372;2022-07-17T07:31:13;32.30;39.00
18085;DHT22;9169;44.492;11.372;2022-07-17T07:33:42;32.40;39.90
18085;DHT22;9169;44.492;11.372;2022-07-17T07:36:09;32.40;39.20
18085;DHT22;9169;44.492;11.372;2022-07-17T07:38:36;32.50;40.50
18085;DHT22;9169;44.492;11.372;2022-07-17T07:41:04;32.50;40.50
18085;DHT22;9169;44.492;11.372;2022-07-17T07:43:31;32.50;39.90
18085;DHT22;9169;44.492;11.372;2022-07-17T07:45:57;32.60;39.70
18085;DHT22;9169;44.492;11.372;2022-07-17T07:48:24;32.60;40.40
18085;DHT22;9169;44.492;11.372;2022-07-17T07:50:51;32.70;40.10
18085;DHT22;9169;44.492;11.372;2022-07-17T07:53:18;32.80;39.90
18085;DHT22;9169;44.492;11.372;2022-07-17T07:55:45;32.90;39.50
18085;DHT22;9169;44.492;11.372;2022-07-17T07:58:14;33.00;39.30
18085;DHT22;9169;44.492;11.372;2022-07-17T08:00:42;33.10;39.20
18085;DHT22;9169;44.492;11.372;2022-07-17T08:03:09;33.10;39.20
18085;DHT22;9169;44.492;11.372;2022-07-17T08:05:36;33.10;38.90
18085;DHT22;9169;44.492;11.372;2022-07-17T08:08:03;33.00;38.90
18085;DHT22;9169;44.492;11.372;2022-07-17T08:10:30;33.20;39.20
18085;DHT22;9169;44.492;11.372;2022-07-17T08:12:57;33.20;39.10
18085;DHT22;9169;44.492;11.372;2022-07-17T08:15:25;33.20;39.80
18085;DHT22;9169;44.492;11.372;2022-07-17T08:17:52;33.20;39.60
18085;DHT22;9169;44.492;11.372;2022-07-17T08:20:21;33.30;39.10
18085;DHT22;9169;44.492;11.372;2022-07-17T08:22:51;33.40;38.70
18085;DHT22;9169;44.492;11.372;2022-07-17T08:25:18;33.50;38.40
18085;DHT22;9169;44.492;11.372;2022-07-17T08:27:44;33.50;39.10
18085;DHT22;9169;44.492;11.372;2022-07-17T08:30:12;33.50;38.90
18085;DHT22;9169;44.492;11.372;2022-07-17T08:32:40;33.50;38.90
18085;DHT22;9169;44.492;11.372;2022-07-17T08:35:07;33.60;38.70
18085;DHT22;9169;44.492;11.372;2022-07-17T08:37:42;33.60;38.50
18085;DHT22;9169;44.492;11.372;2022-07-17T08:40:14;33.60;38.20
18085;DHT22;9169;44.492;11.372;2022-07-17T08:42:41;33.70;38.20
18085;DHT22;9169;44.492;11.372;2022-07-17T08:45:08;33.70;38.60
18085;DHT22;9169;44.492;11.372;2022-07-17T08:47:35;33.70;38.50
18085;DHT22;9169;44.492;11.372;2022-07-17T08:50:05;33.70;38.90
18085;DHT22;9169;44.492;11.372;2022-07-17T08:52:32;33.80;38.10
18085;DHT22;9169;44.492;11.372;2022-07-17T08:54:58;33.80;38.00
18085;DHT22;9169;44.492;11.372;2022-07-17T08:57:25;33.90;38.50
18085;DHT22;9169;44.492;11.372;2022-07-17T08:59:52;33.90;39.10
18085;DHT22;9169;44.492;11.372;2022-07-17T09:02:19;34.00;39.60
18085;DHT22;9169;44.492;11.372;2022-07-17T09:04:52;34.00;38.90
18085;DHT22;9169;44.492;11.372;2022-07-17T09:07:20;34.00;38.20
18085;DHT22;9169;44.492;11.372;2022-07-17T09:09:49;34.10;38.30
18085;DHT22;9169;44.492;11.372;2022-07-17T09:12:16;34.20;38.30
18085;DHT22;9169;44.492;11.372;2022-07-17T09:14:42;34.30;38.20
18085;DHT22;9169;44.492;11.372;2022-07-17T09:17:12;34.50;38.10
18085;DHT22;9169;44.492;11.372;2022-07-17T09:19:40;34.50;37.80
18085;DHT22;9169;44.492;11.372;2022-07-17T09:22:07;34.70;37.90
18085;DHT22;9169;44.492;11.372;2022-07-17T09:24:44;34.70;37.70
18085;DHT22;9169;44.492;11.372;2022-07-17T09:27:12;34.80;37.50
18085;DHT22;9169;44.492;11.372;2022-07-17T09:29:49;34.90;37.30
18085;DHT22;9169;44.492;11.372;2022-07-17T09:32:17;35.00;37.80
18085;DHT22;9169;44.492;11.372;2022-07-17T09:34:44;35.20;37.30
18085;DHT22;9169;44.492;11.372;2022-07-17T09:37:11;35.30;37.10
18085;DHT22;9169;44.492;11.372;2022-07-17T09:39:38;35.40;36.90
18085;DHT22;9169;44.492;11.372;2022-07-17T09:42:09;35.60;36.70
18085;DHT22;9169;44.492;11.372;2022-07-17T09:44:35;35.70;36.60
18085;DHT22;9169;44.492;11.372;2022-07-17T09:47:03;35.90;37.00
18085;DHT22;9169;44.492;11.372;2022-07-17T09:49:30;36.00;36.40
18085;DHT22;9169;44.492;11.372;2022-07-17T09:51:57;36.10;36.30
18085;DHT22;9169;44.492;11.372;2022-07-17T09:54:26;36.30;36.20
18085;DHT22;9169;44.492;11.372;2022-07-17T09:56:56;36.40;36.10
18085;DHT22;9169;44.492;11.372;2022-07-17T09:59:25;36.50;36.50
18085;DHT22;9169;44.492;11.372;2022-07-17T10:01:55;36.50;35.80
18085;DHT22;9169;44.492;11.372;2022-07-17T10:04:22;36.70;35.70
18085;DHT22;9169;44.492;11.372;2022-07-17T10:06:49;36.80;35.60
18085;DHT22;9169;44.492;11.372;2022-07-17T10:09:16;36.90;35.50
18085;DHT22;9169;44.492;11.372;2022-07-17T10:11:43;37.00;35.40
18085;DHT22;9169;44.492;11.372;2022-07-17T10:14:11;37.20;35.40
18085;DHT22;9169;44.492;11.372;2022-07-17T10:16:39;37.30;35.30
18085;DHT22;9169;44.492;11.372;2022-07-17T10:19:17;37.50;35.30
18085;DHT22;9169;44.492;11.372;2022-07-17T10:21:54;37.60;35.20
18085;DHT22;9169;44.492;11.372;2022-07-17T10:24:21;37.70;35.10
18085;DHT22;9169;44.492;11.372;2022-07-17T10:26:49;37.90;34.90
18085;DHT22;9169;44.492;11.372;2022-07-17T10:29:29;37.80;34.60
18085;DHT22;9169;44.492;11.372;2022-07-17T10:31:58;38.10;34.60
18085;DHT22;9169;44.492;11.372;2022-07-17T10:37:20;38.20;34.10
18085;DHT22;9169;44.492;11.372;2022-07-17T10:39:57;38.30;34.20
18085;DHT22;9169;44.492;11.372;2022-07-17T10:42:36;38.40;34.30
18085;DHT22;9169;44.492;11.372;2022-07-17T10:45:06;38.60;34.10
18085;DHT22;9169;44.492;11.372;2022-07-17T10:47:43;38.70;33.90
18085;DHT22;9169;44.492;11.372;2022-07-17T10:50:10;38.70;33.80
18085;DHT22;9169;44.492;11.372;2022-07-17T10:52:37;38.70;33.50
18085;DHT22;9169;44.492;11.372;2022-07-17T10:55:04;38.90;33.70
18085;DHT22;9169;44.492;11.372;2022-07-17T10:57:31;39.00;33.70
18085;DHT22;9169;44.492;11.372;2022-07-17T10:59:58;39.10;33.50
18085;DHT22;9169;44.492;11.372;2022-07-17T11:02:27;39.30;33.40
18085;DHT22;9169;44.492;11.372;2022-07-17T11:04:55;39.40;33.20
18085;DHT22;9169;44.492;11.372;2022-07-17T11:07:31;39.50;32.80
18085;DHT22;9169;44.492;11.372;2022-07-17T11:09:58;39.50;32.70
18085;DHT22;9169;44.492;11.372;2022-07-17T11:12:30;39.80;33.10
18085;DHT22;9169;44.492;11.372;2022-07-17T11:14:59;40.20;32.70
18085;DHT22;9169;44.492;11.372;2022-07-17T11:17:25;40.70;32.60
18085;DHT22;9169;44.492;11.372;2022-07-17T11:19:52;41.20;32.10
18085;DHT22;9169;44.492;11.372;2022-07-17T11:22:22;41.80;31.20
18085;DHT22;9169;44.492;11.372;2022-07-17T11:24:49;42.40;30.30
18085;DHT22;9169;44.492;11.372;2022-07-17T11:27:18;43.10;30.00
18085;DHT22;9169;44.492;11.372;2022-07-17T11:29:45;43.90;29.80
18085;DHT22;9169;44.492;11.372;2022-07-17T11:32:13;44.60;29.30
18085;DHT22;9169;44.492;11.372;2022-07-17T11:34:39;45.20;28.60
18085;DHT22;9169;44.492;11.372;2022-07-17T11:37:07;45.90;28.30
18085;DHT22;9169;44.492;11.372;2022-07-17T11:39:39;46.30;27.80
18085;DHT22;9169;44.492;11.372;2022-07-17T11:42:07;46.70;27.50
18085;DHT22;9169;44.492;11.372;2022-07-17T11:44:34;47.10;27.50
18085;DHT22;9169;44.492;11.372;2022-07-17T11:47:01;47.20;26.10
18085;DHT22;9169;44.492;11.372;2022-07-17T11:49:30;47.30;26.60
18085;DHT22;9169;44.492;11.372;2022-07-17T11:51:58;47.50;26.60
18085;DHT22;9169;44.492;11.372;2022-07-17T11:54:25;47.30;25.60
18085;DHT22;9169;44.492;11.372;2022-07-17T11:56:54;47.00;25.40
18085;DHT22;9169;44.492;11.372;2022-07-17T11:59:23;46.90;26.20
18085;DHT22;9169;44.492;11.372;2022-07-17T12:01:51;47.00;26.50
18085;DHT22;9169;44.492;11.372;2022-07-17T12:04:18;47.60;26.70
18085;DHT22;9169;44.492;11.372;2022-07-17T12:06:45;48.30;26.40
18085;DHT22;9169;44.492;11.372;2022-07-17T12:09:12;48.70;25.70
18085;DHT22;9169;44.492;11.372;2022-07-17T12:11:45;48.70;25.40
18085;DHT22;9169;44.492;11.372;2022-07-17T12:14:14;48.80;25.90
18085;DHT22;9169;44.492;11.372;2022-07-17T12:16:41;49.00;25.50
18085;DHT22;9169;44.492;11.372;2022-07-17T12:19:09;49.10;25.70
18085;DHT22;9169;44.492;11.372;2022-07-17T12:21:46;48.90;25.40
18085;DHT22;9169;44.492;11.372;2022-07-17T12:24:18;49.30;25.70
18085;DHT22;9169;44.492;11.372;2022-07-17T12:26:48;49.80;25.80
18085;DHT22;9169;44.492;11.372;2022-07-17T12:29:16;50.40;25.60
18085;DHT22;9169;44.492;11.372;2022-07-17T12:31:43;50.90;24.60
18085;DHT22;9169;44.492;11.372;2022-07-17T12:34:10;50.80;24.70
18085;DHT22;9169;44.492;11.372;2022-07-17T12:36:36;50.90;24.20
18085;DHT22;9169;44.492;11.372;2022-07-17T12:39:05;50.80;24.90
18085;DHT22;9169;44.492;11.372;2022-07-17T12:41:32;50.70;23.50
18085;DHT22;9169;44.492;11.372;2022-07-17T12:43:59;50.40;24.50
18085;DHT22;9169;44.492;11.372;2022-07-17T12:46:27;50.30;24.30
18085;DHT22;9169;44.492;11.372;2022-07-17T12:48:53;50.40;24.80
18085;DHT22;9169;44.492;11.372;2022-07-17T12:51:20;50.60;25.10
18085;DHT22;9169;44.492;11.372;2022-07-17T12:53:47;50.80;24.30
18085;DHT22;9169;44.492;11.372;2022-07-17T12:56:14;50.80;23.20
18085;DHT22;9169;44.492;11.372;2022-07-17T12:58:41;50.50;24.30
18085;DHT22;9169;44.492;11.372;2022-07-17T13:01:08;50.60;24.40
18085;DHT22;9169;44.492;11.372;2022-07-17T13:03:36;50.60;24.30
18085;DHT22;9169;44.492;11.372;2022-07-17T13:06:03;50.50;24.20
18085;DHT22;9169;44.492;11.372;2022-07-17T13:08:30;50.20;23.90
18085;DHT22;9169;44.492;11.372;2022-07-17T13:10:57;50.20;24.70
18085;DHT22;9169;44.492;11.372;2022-07-17T13:13:24;50.60;24.20
18085;DHT22;9169;44.492;11.372;2022-07-17T13:15:50;50.80;24.40
18085;DHT22;9169;44.492;11.372;2022-07-17T13:18:20;50.80;24.20
18085;DHT22;9169;44.492;11.372;2022-07-17T13:20:48;51.00;23.60
18085;DHT22;9169;44.492;11.372;2022-07-17T13:23:18;50.80;23.80
18085;DHT22;9169;44.492;11.372;2022-07-17T13:25:45;50.80;24.10
18085;DHT22;9169;44.492;11.372;2022-07-17T13:28:11;50.80;24.20
18085;DHT22;9169;44.492;11.372;2022-07-17T13:30:38;51.00;24.30
18085;DHT22;9169;44.492;11.372;2022-07-17T13:33:05;51.20;24.20
18085;DHT22;9169;44.492;11.372;2022-07-17T13:35:32;51.30;23.90
18085;DHT22;9169;44.492;11.372;2022-07-17T13:38:00;51.20;23.90
18085;DHT22;9169;44.492;11.372;2022-07-17T13:40:29;51.20;23.90
18085;DHT22;9169;44.492;11.372;2022-07-17T13:42:56;51.10;23.80
18085;DHT22;9169;44.492;11.372;2022-07-17T13:45:23;51.20;24.10
18085;DHT22;9169;44.492;11.372;2022-07-17T13:47:49;51.30;24.00
18085;DHT22;9169;44.492;11.372;2022-07-17T13:50:17;51.40;23.00
18085;DHT22;9169;44.492;11.372;2022-07-17T13:52:43;51.20;24.00
18085;DHT22;9169;44.492;11.372;2022-07-17T13:55:12;51.20;24.00
18085;DHT22;9169;44.492;11.372;2022-07-17T13:57:39;51.30;23.90
18085;DHT22;9169;44.492;11.372;2022-07-17T14:00:06;51.10;23.70
18085;DHT22;9169;44.492;11.372;2022-07-17T14:02:33;50.90;23.60
18085;DHT22;9169;44.492;11.372;2022-07-17T14:05:00;50.80;23.90
18085;DHT22;9169;44.492;11.372;2022-07-17T14:07:27;50.90;24.10
18085;DHT22;9169;44.492;11.372;2022-07-17T14:09:54;50.70;23.10
18085;DHT22;9169;44.492;11.372;2022-07-17T14:12:22;50.60;23.90
18085;DHT22;9169;44.492;11.372;2022-07-17T14:14:49;50.60;24.20
18085;DHT22;9169;44.492;11.372;2022-07-17T14:17:16;50.50;23.80
18085;DHT22;9169;44.492;11.372;2022-07-17T14:19:43;50.30;23.70
18085;DHT22;9169;44.492;11.372;2022-07-17T14:22:09;50.40;24.10
18085;DHT22;9169;44.492;11.372;2022-07-17T14:24:36;50.50;23.40
18085;DHT22;9169;44.492;11.372;2022-07-17T14:27:03;50.30;23.70
18085;DHT22;9169;44.492;11.372;2022-07-17T14:29:31;50.20;23.50
18085;DHT22;9169;44.492;11.372;2022-07-17T14:31:58;50.00;24.10
18085;DHT22;9169;44.492;11.372;2022-07-17T14:34:25;49.70;24.10
18085;DHT22;9169;44.492;11.372;2022-07-17T14:36:51;49.50;24.20
18085;DHT22;9169;44.492;11.372;2022-07-17T14:39:18;49.30;23.50
18085;DHT22;9169;44.492;11.372;2022-07-17T14:41:45;48.70;22.90
18085;DHT22;9169;44.492;11.372;2022-07-17T14:44:15;48.30;23.90
18085;DHT22;9169;44.492;11.372;2022-07-17T14:46:43;48.50;24.30
18085;DHT22;9169;44.492;11.372;2022-07-17T14:49:09;48.60;24.00
18085;DHT22;9169;44.492;11.372;2022-07-17T14:51:36;48.50;23.80
18085;DHT22;9169;44.492;11.372;2022-07-17T14:54:03;48.50;23.90
18085;DHT22;9169;44.492;11.372;2022-07-17T14:56:30;48.10;24.00
18085;DHT22;9169;44.492;11.372;2022-07-17T14:58:57;47.30;22.90
18085;DHT22;9169;44.492;11.372;2022-07-17T15:01:23;46.30;23.50
18085;DHT22;9169;44.492;11.372;2022-07-17T15:03:52;45.50;24.50
18085;DHT22;9169;44.492;11.372;2022-07-17T15:06:18;45.20;25.00
18085;DHT22;9169;44.492;11.372;2022-07-17T15:08:45;44.70;24.00
18085;DHT22;9169;44.492;11.372;2022-07-17T15:11:12;44.30;25.00
18085;DHT22;9169;44.492;11.372;2022-07-17T15:13:39;44.50;25.40
18085;DHT22;9169;44.492;11.372;2022-07-17T15:16:06;44.70;24.70
18085;DHT22;9169;44.492;11.372;2022-07-17T15:18:33;44.70;24.60
18085;DHT22;9169;44.492;11.372;2022-07-17T15:21:01;44.70;25.20
18085;DHT22;9169;44.492;11.372;2022-07-17T15:23:28;45.10;25.40
18085;DHT22;9169;44.492;11.372;2022-07-17T15:25:54;45.40;25.30
18085;DHT22;9169;44.492;11.372;2022-07-17T15:28:21;45.40;25.40
18085;DHT22;9169;44.492;11.372;2022-07-17T15:30:48;45.30;24.80
18085;DHT22;9169;44.492;11.372;2022-07-17T15:33:14;45.20;24.90
18085;DHT22;9169;44.492;11.372;2022-07-17T15:35:41;45.10;25.10